Overseas Milos — V7WR8 — position and weather

sailwx.info

Track history (hours):
 
Tides and Currents Weather Stations Pressure Air Temp Water Temp Dewpoint Dewpoint Depression Visibility Wind Speed Wind Dir Waves Ship Positions

Overseas Milos

Last reported at 2016-May-24 19:14 UTC. Time now 2016-May-25 05:24 UTC.
Position N 52°03' E 003°12'.

Length 183 m; draft 8.4 m.

Type: Tanker. MMSI: 538004376.

Date/timePositionNaut miles runAvg speedWind from/ knotsBaromVisibWave heightAir tempDewpointWater temp
2016-May-24 19:14N 52°03' E 003°12'14 8.0
2016-May-24 17:29N 51°54' E 003°30'1 0.6
2016-May-24 15:20N 51°55' E 003°32'5010.2
2016-May-24 10:26N 51°33' E 002°20'910.1
2016-May-24 09:34N 51°25' E 002°12'1010.2
2016-May-24 08:34N 51°16' E 002°06'10 9.9
2016-May-24 07:33N 51°10' E 001°53'1010.3
2016-May-24 06:34N 51°04' E 001°40'1110.9
2016-May-24 05:34N 50°56' E 001°28'1211.7
2016-May-24 04:30N 50°44' E 001°22'3711.7
2016-May-24 01:20N 50°26' E 000°31'1012.4
2016-May-24 00:30N 50°23' E 000°16'1213.2
2016-May-23 23:33N 50°20' W 000°03'1414.2
2016-May-23 22:33N 50°16' W 000°24'1615.6
2016-May-23 21:33N 50°12' W 000°48'1616.1
2016-May-23 20:33N 50°07' W 001°12'1715.8
2016-May-23 19:28N 50°03' W 001°38'1414.8
2016-May-23 18:33N 49°60' W 001°59'2713.1
2016-May-23 16:30N 49°52' W 002°39'1112.0
2016-May-23 15:33N 49°49' W 002°55'6 5.2
2016-May-23 14:21N 49°46' W 003°04'7 9.4
2016-May-23 13:33N 49°46' W 003°15'1111.5
2016-May-23 12:33N 49°43' W 003°32'3410.9
2016-May-23 09:27N 49°46' W 004°25'1213.1
2016-May-23 08:32N 49°53' W 004°39'1313.2
2016-May-23 07:33N 50°02' W 004°54'4 3.8
2016-May-23 06:33N 50°03' W 005°00'1210.9
2016-May-23 05:28N 49°51' W 005°03'5111.6
2016-May-23 01:04N 49°00' W 005°12'911.4
2016-May-23 00:14N 48°54' W 005°23'710.8
2016-May-22 23:33N 48°49' W 005°31'  
2016-May-20 13:09N 39°15' W 009°50'712.0
2016-May-20 12:33N 39°08' W 009°50'1212.1
2016-May-20 11:33N 38°56' W 009°50'1212.2
2016-May-20 10:33N 38°44' W 009°51'1211.8
2016-May-20 09:33N 38°32' W 009°48'1211.5
2016-May-20 08:32N 38°21' W 009°45'1211.8
2016-May-20 07:32N 38°09' W 009°41'1211.8
2016-May-20 06:33N 37°58' W 009°38'1211.5
2016-May-20 05:33N 37°46' W 009°35'21910.8
2016-May-19 09:08N 35°58' W 005°36'610.9
2016-May-19 08:33N 35°60' W 005°28'9 9.1
2016-May-19 07:33N 36°03' W 005°18'21710.3
2016-May-18 10:32N 36°57' W 000°57'1312.6
2016-May-18 09:32N 37°02' W 000°42'5 4.8
2016-May-18 08:24N 37°05' W 000°36'3 1.5
2016-May-18 06:17N 37°06' W 000°33'911.8
2016-May-18 05:33N 37°10' W 000°23'1312.8
2016-May-18 04:33N 37°16' W 000°09'1212.7
2016-May-18 03:34N 37°22' E 000°05'1312.5
2016-May-18 02:29N 37°28' E 000°20'7 7.3
2016-May-18 01:33N 37°31' E 000°27'12 5.4
2016-May-17 23:20N 37°37' E 000°41'4 4.9
2016-May-17 22:33N 37°39' E 000°45'35 6.9
2016-May-17 17:27N 37°56' E 001°24'1 1.2
2016-May-17 16:33N 37°56' E 001°25'5 1.1
2016-May-17 12:29N 37°59' E 001°30'6 0.9
2016-May-17 06:04N 38°03' E 001°35'4 0.3
2016-May-16 17:32N 38°07' E 001°33'2 0.2
2016-May-16 10:05N 38°08' E 001°32'0 0.4
2016-May-16 09:31N 38°09' E 001°32'0 0.5
2016-May-16 08:32N 38°09' E 001°32'1 0.6
2016-May-16 07:33N 38°09' E 001°31'1 0.7
2016-May-16 06:33N 38°10' E 001°30'1 0.6
2016-May-16 05:33N 38°10' E 001°29'1 0.6
2016-May-16 04:33N 38°10' E 001°29'1 0.7
2016-May-16 03:33N 38°10' E 001°28'2 0.7
2016-May-16 00:05N 38°10' E 001°25'0 0.7
2016-May-15 23:33N 38°10' E 001°24'1 0.8
2016-May-15 22:29N 38°10' E 001°23'3 1.0
2016-May-15 19:26N 38°09' E 001°19'2 1.1
2016-May-15 17:33N 38°09' E 001°17'  
Track history (hours):
 
Tides and Currents Weather Stations Pressure Air Temp Water Temp Dewpoint Dewpoint Depression Visibility Wind Speed Wind Dir Waves Ship Positions

Overseas Milos

Last reported at 2016-May-24 19:14 UTC. Time now 2016-May-25 05:24 UTC.
Position N 52°03' E 003°12'.

Length 183 m; draft 8.4 m.

Type: Tanker. MMSI: 538004376.

Date/timePositionNaut miles runAvg speedWind from/ knotsBaromVisibWave heightAir tempDewpointWater temp
2016-May-24 19:14N 52°03' E 003°12'14 8.0
2016-May-24 17:29N 51°54' E 003°30'1 0.6
2016-May-24 15:20N 51°55' E 003°32'5010.2
2016-May-24 10:26N 51°33' E 002°20'910.1
2016-May-24 09:34N 51°25' E 002°12'1010.2
2016-May-24 08:34N 51°16' E 002°06'10 9.9
2016-May-24 07:33N 51°10' E 001°53'1010.3
2016-May-24 06:34N 51°04' E 001°40'1110.9
2016-May-24 05:34N 50°56' E 001°28'1211.7
2016-May-24 04:30N 50°44' E 001°22'3711.7
2016-May-24 01:20N 50°26' E 000°31'1012.4
2016-May-24 00:30N 50°23' E 000°16'1213.2
2016-May-23 23:33N 50°20' W 000°03'1414.2
2016-May-23 22:33N 50°16' W 000°24'1615.6
2016-May-23 21:33N 50°12' W 000°48'1616.1
2016-May-23 20:33N 50°07' W 001°12'1715.8
2016-May-23 19:28N 50°03' W 001°38'1414.8
2016-May-23 18:33N 49°60' W 001°59'2713.1
2016-May-23 16:30N 49°52' W 002°39'1112.0
2016-May-23 15:33N 49°49' W 002°55'6 5.2
2016-May-23 14:21N 49°46' W 003°04'7 9.4
2016-May-23 13:33N 49°46' W 003°15'1111.5
2016-May-23 12:33N 49°43' W 003°32'3410.9
2016-May-23 09:27N 49°46' W 004°25'1213.1
2016-May-23 08:32N 49°53' W 004°39'1313.2
2016-May-23 07:33N 50°02' W 004°54'4 3.8
2016-May-23 06:33N 50°03' W 005°00'1210.9
2016-May-23 05:28N 49°51' W 005°03'5111.6
2016-May-23 01:04N 49°00' W 005°12'911.4
2016-May-23 00:14N 48°54' W 005°23'710.8
2016-May-22 23:33N 48°49' W 005°31'  
2016-May-20 13:09N 39°15' W 009°50'712.0
2016-May-20 12:33N 39°08' W 009°50'1212.1
2016-May-20 11:33N 38°56' W 009°50'1212.2
2016-May-20 10:33N 38°44' W 009°51'1211.8
2016-May-20 09:33N 38°32' W 009°48'1211.5
2016-May-20 08:32N 38°21' W 009°45'1211.8
2016-May-20 07:32N 38°09' W 009°41'1211.8
2016-May-20 06:33N 37°58' W 009°38'1211.5
2016-May-20 05:33N 37°46' W 009°35'21910.8
2016-May-19 09:08N 35°58' W 005°36'610.9
2016-May-19 08:33N 35°60' W 005°28'9 9.1
2016-May-19 07:33N 36°03' W 005°18'21710.3
2016-May-18 10:32N 36°57' W 000°57'1312.6
2016-May-18 09:32N 37°02' W 000°42'5 4.8
2016-May-18 08:24N 37°05' W 000°36'3 1.5
2016-May-18 06:17N 37°06' W 000°33'911.8
2016-May-18 05:33N 37°10' W 000°23'1312.8
2016-May-18 04:33N 37°16' W 000°09'1212.7
2016-May-18 03:34N 37°22' E 000°05'1312.5
2016-May-18 02:29N 37°28' E 000°20'7 7.3
2016-May-18 01:33N 37°31' E 000°27'12 5.4
2016-May-17 23:20N 37°37' E 000°41'4 4.9
2016-May-17 22:33N 37°39' E 000°45'35 6.9
2016-May-17 17:27N 37°56' E 001°24'1 1.2
2016-May-17 16:33N 37°56' E 001°25'5 1.1
2016-May-17 12:29N 37°59' E 001°30'6 0.9
2016-May-17 06:04N 38°03' E 001°35'4 0.3
2016-May-16 17:32N 38°07' E 001°33'2 0.2
2016-May-16 10:05N 38°08' E 001°32'0 0.4
2016-May-16 09:31N 38°09' E 001°32'0 0.5
2016-May-16 08:32N 38°09' E 001°32'1 0.6
2016-May-16 07:33N 38°09' E 001°31'1 0.7
2016-May-16 06:33N 38°10' E 001°30'1 0.6
2016-May-16 05:33N 38°10' E 001°29'1 0.6
2016-May-16 04:33N 38°10' E 001°29'1 0.7
2016-May-16 03:33N 38°10' E 001°28'2 0.7
2016-May-16 00:05N 38°10' E 001°25'0 0.7
2016-May-15 23:33N 38°10' E 001°24'1 0.8
2016-May-15 22:29N 38°10' E 001°23'3 1.0
2016-May-15 19:26N 38°09' E 001°19'2 1.1
2016-May-15 17:33N 38°09' E 001°17'  

Dump ship's entire track history